sensor_id;sensor_type;location;lat;lon;timestamp;P1;durP1;ratioP1;P2;durP2;ratioP2
18364;SDS011;9309;52.126;11.616;2022-12-18T00:02:09;57.40;;;19.63;;
18364;SDS011;9309;52.126;11.616;2022-12-18T00:04:37;61.43;;;18.43;;
18364;SDS011;9309;52.126;11.616;2022-12-18T00:07:05;62.97;;;19.73;;
18364;SDS011;9309;52.126;11.616;2022-12-18T00:09:32;65.07;;;21.23;;
18364;SDS011;9309;52.126;11.616;2022-12-18T00:11:59;29.27;;;12.97;;
18364;SDS011;9309;52.126;11.616;2022-12-18T00:14:25;65.13;;;21.17;;
18364;SDS011;9309;52.126;11.616;2022-12-18T00:16:52;58.97;;;19.97;;
18364;SDS011;9309;52.126;11.616;2022-12-18T00:19:19;41.20;;;16.33;;
18364;SDS011;9309;52.126;11.616;2022-12-18T00:21:46;57.23;;;18.53;;
18364;SDS011;9309;52.126;11.616;2022-12-18T00:24:14;60.23;;;21.23;;
18364;SDS011;9309;52.126;11.616;2022-12-18T00:26:41;43.43;;;15.67;;
18364;SDS011;9309;52.126;11.616;2022-12-18T00:29:10;47.40;;;18.00;;
18364;SDS011;9309;52.126;11.616;2022-12-18T00:31:39;59.00;;;20.57;;
18364;SDS011;9309;52.126;11.616;2022-12-18T00:34:08;63.43;;;20.33;;
18364;SDS011;9309;52.126;11.616;2022-12-18T00:36:38;56.73;;;18.23;;
18364;SDS011;9309;52.126;11.616;2022-12-18T00:39:06;53.57;;;19.20;;
18364;SDS011;9309;52.126;11.616;2022-12-18T00:41:34;45.53;;;16.47;;
18364;SDS011;9309;52.126;11.616;2022-12-18T00:44:19;51.13;;;17.73;;
18364;SDS011;9309;52.126;11.616;2022-12-18T00:46:46;52.87;;;18.00;;
18364;SDS011;9309;52.126;11.616;2022-12-18T00:49:13;55.47;;;19.57;;
18364;SDS011;9309;52.126;11.616;2022-12-18T00:51:41;42.47;;;17.47;;
18364;SDS011;9309;52.126;11.616;2022-12-18T00:54:07;45.20;;;17.83;;
18364;SDS011;9309;52.126;11.616;2022-12-18T00:56:36;55.07;;;18.23;;
18364;SDS011;9309;52.126;11.616;2022-12-18T00:59:03;44.53;;;17.77;;
18364;SDS011;9309;52.126;11.616;2022-12-18T01:01:31;59.63;;;20.83;;
18364;SDS011;9309;52.126;11.616;2022-12-18T01:03:59;61.40;;;22.27;;
18364;SDS011;9309;52.126;11.616;2022-12-18T01:06:27;64.33;;;20.40;;
18364;SDS011;9309;52.126;11.616;2022-12-18T01:08:54;66.17;;;21.73;;
18364;SDS011;9309;52.126;11.616;2022-12-18T01:11:21;72.83;;;21.80;;
18364;SDS011;9309;52.126;11.616;2022-12-18T01:13:50;64.20;;;19.93;;
18364;SDS011;9309;52.126;11.616;2022-12-18T01:16:20;62.67;;;21.80;;
18364;SDS011;9309;52.126;11.616;2022-12-18T01:18:50;60.83;;;19.40;;
18364;SDS011;9309;52.126;11.616;2022-12-18T01:21:18;56.10;;;22.03;;
18364;SDS011;9309;52.126;11.616;2022-12-18T01:23:46;46.13;;;18.73;;
18364;SDS011;9309;52.126;11.616;2022-12-18T01:26:16;67.20;;;20.47;;
18364;SDS011;9309;52.126;11.616;2022-12-18T01:28:43;61.73;;;20.43;;
18364;SDS011;9309;52.126;11.616;2022-12-18T01:31:16;58.63;;;20.93;;
18364;SDS011;9309;52.126;11.616;2022-12-18T01:33:45;48.67;;;19.53;;
18364;SDS011;9309;52.126;11.616;2022-12-18T01:36:16;50.73;;;18.63;;
18364;SDS011;9309;52.126;11.616;2022-12-18T01:38:44;55.40;;;18.83;;
18364;SDS011;9309;52.126;11.616;2022-12-18T01:41:11;51.83;;;17.23;;
18364;SDS011;9309;52.126;11.616;2022-12-18T01:43:46;65.60;;;20.97;;
18364;SDS011;9309;52.126;11.616;2022-12-18T01:46:18;65.17;;;21.37;;
18364;SDS011;9309;52.126;11.616;2022-12-18T01:48:47;56.17;;;19.47;;
18364;SDS011;9309;52.126;11.616;2022-12-18T01:51:16;52.93;;;18.73;;
18364;SDS011;9309;52.126;11.616;2022-12-18T01:53:44;55.63;;;19.83;;
18364;SDS011;9309;52.126;11.616;2022-12-18T01:56:12;45.83;;;17.97;;
18364;SDS011;9309;52.126;11.616;2022-12-18T01:58:43;48.70;;;17.57;;
18364;SDS011;9309;52.126;11.616;2022-12-18T02:01:17;55.70;;;20.43;;
18364;SDS011;9309;52.126;11.616;2022-12-18T02:03:45;66.33;;;22.00;;
18364;SDS011;9309;52.126;11.616;2022-12-18T02:06:15;74.50;;;24.17;;
18364;SDS011;9309;52.126;11.616;2022-12-18T02:08:48;55.03;;;19.97;;
18364;SDS011;9309;52.126;11.616;2022-12-18T02:11:31;63.83;;;21.00;;
18364;SDS011;9309;52.126;11.616;2022-12-18T02:14:08;61.53;;;22.40;;
18364;SDS011;9309;52.126;11.616;2022-12-18T02:16:44;58.80;;;20.47;;
18364;SDS011;9309;52.126;11.616;2022-12-18T02:19:34;63.53;;;22.77;;
18364;SDS011;9309;52.126;11.616;2022-12-18T02:22:13;68.40;;;20.77;;
18364;SDS011;9309;52.126;11.616;2022-12-18T02:24:54;62.37;;;21.00;;
18364;SDS011;9309;52.126;11.616;2022-12-18T02:27:31;40.77;;;15.67;;
18364;SDS011;9309;52.126;11.616;2022-12-18T02:30:00;40.13;;;15.83;;
18364;SDS011;9309;52.126;11.616;2022-12-18T02:32:28;52.87;;;20.17;;
18364;SDS011;9309;52.126;11.616;2022-12-18T02:34:59;54.63;;;20.27;;
18364;SDS011;9309;52.126;11.616;2022-12-18T02:37:29;61.57;;;20.23;;
18364;SDS011;9309;52.126;11.616;2022-12-18T02:40:00;37.33;;;15.53;;
18364;SDS011;9309;52.126;11.616;2022-12-18T02:42:33;63.63;;;23.40;;
18364;SDS011;9309;52.126;11.616;2022-12-18T02:45:03;65.93;;;22.30;;
18364;SDS011;9309;52.126;11.616;2022-12-18T02:47:31;59.30;;;20.97;;
18364;SDS011;9309;52.126;11.616;2022-12-18T02:50:04;64.87;;;22.07;;
18364;SDS011;9309;52.126;11.616;2022-12-18T02:52:38;71.30;;;23.47;;
18364;SDS011;9309;52.126;11.616;2022-12-18T02:55:19;63.97;;;22.83;;
18364;SDS011;9309;52.126;11.616;2022-12-18T02:58:02;65.13;;;20.63;;
18364;SDS011;9309;52.126;11.616;2022-12-18T03:00:37;76.50;;;23.07;;
18364;SDS011;9309;52.126;11.616;2022-12-18T03:03:07;69.60;;;23.97;;
18364;SDS011;9309;52.126;11.616;2022-12-18T03:05:41;51.87;;;19.67;;
18364;SDS011;9309;52.126;11.616;2022-12-18T03:08:14;68.90;;;22.60;;
18364;SDS011;9309;52.126;11.616;2022-12-18T03:10:48;68.00;;;23.00;;
18364;SDS011;9309;52.126;11.616;2022-12-18T03:13:20;65.80;;;22.93;;
18364;SDS011;9309;52.126;11.616;2022-12-18T03:15:55;54.87;;;19.43;;
18364;SDS011;9309;52.126;11.616;2022-12-18T03:18:26;66.40;;;24.03;;
18364;SDS011;9309;52.126;11.616;2022-12-18T03:20:57;74.13;;;24.23;;
18364;SDS011;9309;52.126;11.616;2022-12-18T03:23:32;74.37;;;24.77;;
18364;SDS011;9309;52.126;11.616;2022-12-18T03:26:05;82.73;;;26.30;;
18364;SDS011;9309;52.126;11.616;2022-12-18T03:28:40;71.77;;;23.43;;
18364;SDS011;9309;52.126;11.616;2022-12-18T03:31:17;79.67;;;25.60;;
18364;SDS011;9309;52.126;11.616;2022-12-18T03:33:51;84.57;;;26.87;;
18364;SDS011;9309;52.126;11.616;2022-12-18T03:36:23;75.03;;;25.07;;
18364;SDS011;9309;52.126;11.616;2022-12-18T03:38:50;77.60;;;23.97;;
18364;SDS011;9309;52.126;11.616;2022-12-18T03:41:18;82.90;;;27.57;;
18364;SDS011;9309;52.126;11.616;2022-12-18T03:44:13;65.27;;;22.07;;
18364;SDS011;9309;52.126;11.616;2022-12-18T03:46:46;73.10;;;23.60;;
18364;SDS011;9309;52.126;11.616;2022-12-18T03:49:23;81.40;;;24.23;;
18364;SDS011;9309;52.126;11.616;2022-12-18T03:51:57;72.33;;;24.40;;
18364;SDS011;9309;52.126;11.616;2022-12-18T03:54:28;71.37;;;25.63;;
18364;SDS011;9309;52.126;11.616;2022-12-18T03:57:05;74.63;;;24.47;;
18364;SDS011;9309;52.126;11.616;2022-12-18T03:59:37;75.37;;;24.57;;
18364;SDS011;9309;52.126;11.616;2022-12-18T04:02:05;64.27;;;21.80;;
18364;SDS011;9309;52.126;11.616;2022-12-18T04:04:34;64.23;;;24.10;;
18364;SDS011;9309;52.126;11.616;2022-12-18T04:07:03;56.17;;;20.17;;
18364;SDS011;9309;52.126;11.616;2022-12-18T04:09:33;60.07;;;19.20;;
18364;SDS011;9309;52.126;11.616;2022-12-18T04:12:04;63.13;;;20.13;;
18364;SDS011;9309;52.126;11.616;2022-12-18T04:14:31;50.83;;;19.87;;
18364;SDS011;9309;52.126;11.616;2022-12-18T04:17:02;54.23;;;21.23;;
18364;SDS011;9309;52.126;11.616;2022-12-18T04:19:31;50.93;;;19.33;;
18364;SDS011;9309;52.126;11.616;2022-12-18T04:22:00;68.90;;;22.20;;
18364;SDS011;9309;52.126;11.616;2022-12-18T04:24:32;71.27;;;22.93;;
18364;SDS011;9309;52.126;11.616;2022-12-18T04:27:07;38.73;;;14.50;;
18364;SDS011;9309;52.126;11.616;2022-12-18T04:29:40;46.17;;;16.00;;
18364;SDS011;9309;52.126;11.616;2022-12-18T04:32:08;55.93;;;20.20;;
18364;SDS011;9309;52.126;11.616;2022-12-18T04:34:36;69.10;;;21.93;;
18364;SDS011;9309;52.126;11.616;2022-12-18T04:37:03;53.70;;;19.80;;
18364;SDS011;9309;52.126;11.616;2022-12-18T04:39:31;72.00;;;22.73;;
18364;SDS011;9309;52.126;11.616;2022-12-18T04:42:03;76.60;;;25.20;;
18364;SDS011;9309;52.126;11.616;2022-12-18T04:44:30;64.40;;;23.60;;
18364;SDS011;9309;52.126;11.616;2022-12-18T04:46:57;52.47;;;17.87;;
18364;SDS011;9309;52.126;11.616;2022-12-18T04:49:25;66.77;;;23.53;;
18364;SDS011;9309;52.126;11.616;2022-12-18T04:51:52;66.17;;;22.30;;
18364;SDS011;9309;52.126;11.616;2022-12-18T04:54:19;35.63;;;12.60;;
18364;SDS011;9309;52.126;11.616;2022-12-18T04:56:46;63.27;;;21.33;;
18364;SDS011;9309;52.126;11.616;2022-12-18T04:59:13;63.70;;;23.30;;
18364;SDS011;9309;52.126;11.616;2022-12-18T05:01:40;75.03;;;26.50;;
18364;SDS011;9309;52.126;11.616;2022-12-18T05:04:06;83.07;;;24.47;;
18364;SDS011;9309;52.126;11.616;2022-12-18T05:06:34;71.13;;;22.77;;
18364;SDS011;9309;52.126;11.616;2022-12-18T05:09:01;70.30;;;25.80;;
18364;SDS011;9309;52.126;11.616;2022-12-18T05:11:28;69.73;;;24.67;;
18364;SDS011;9309;52.126;11.616;2022-12-18T05:13:55;77.10;;;23.87;;
18364;SDS011;9309;52.126;11.616;2022-12-18T05:16:22;52.30;;;19.80;;
18364;SDS011;9309;52.126;11.616;2022-12-18T05:18:48;43.27;;;18.03;;
18364;SDS011;9309;52.126;11.616;2022-12-18T05:21:15;45.67;;;17.60;;
18364;SDS011;9309;52.126;11.616;2022-12-18T05:23:43;58.67;;;22.20;;
18364;SDS011;9309;52.126;11.616;2022-12-18T05:26:11;85.00;;;24.63;;
18364;SDS011;9309;52.126;11.616;2022-12-18T05:28:42;61.27;;;21.00;;
18364;SDS011;9309;52.126;11.616;2022-12-18T05:31:09;50.40;;;18.10;;
18364;SDS011;9309;52.126;11.616;2022-12-18T05:33:36;74.97;;;24.47;;
18364;SDS011;9309;52.126;11.616;2022-12-18T05:36:03;71.47;;;22.63;;
18364;SDS011;9309;52.126;11.616;2022-12-18T05:38:33;50.13;;;18.93;;
18364;SDS011;9309;52.126;11.616;2022-12-18T05:41:03;79.80;;;24.47;;
18364;SDS011;9309;52.126;11.616;2022-12-18T05:43:30;59.30;;;21.30;;
18364;SDS011;9309;52.126;11.616;2022-12-18T05:45:57;75.10;;;26.47;;
18364;SDS011;9309;52.126;11.616;2022-12-18T05:48:29;60.10;;;20.60;;
18364;SDS011;9309;52.126;11.616;2022-12-18T05:50:55;93.87;;;28.93;;
18364;SDS011;9309;52.126;11.616;2022-12-18T05:53:28;80.50;;;27.70;;
18364;SDS011;9309;52.126;11.616;2022-12-18T05:55:59;85.20;;;27.33;;
18364;SDS011;9309;52.126;11.616;2022-12-18T05:58:28;75.23;;;25.57;;
18364;SDS011;9309;52.126;11.616;2022-12-18T06:00:55;85.37;;;26.90;;
18364;SDS011;9309;52.126;11.616;2022-12-18T06:03:22;80.47;;;26.20;;
18364;SDS011;9309;52.126;11.616;2022-12-18T06:05:49;80.77;;;27.20;;
18364;SDS011;9309;52.126;11.616;2022-12-18T06:08:16;41.77;;;16.80;;
18364;SDS011;9309;52.126;11.616;2022-12-18T06:10:49;73.77;;;26.40;;
18364;SDS011;9309;52.126;11.616;2022-12-18T06:13:17;63.57;;;22.93;;
18364;SDS011;9309;52.126;11.616;2022-12-18T06:15:45;76.00;;;25.13;;
18364;SDS011;9309;52.126;11.616;2022-12-18T06:18:12;74.17;;;24.43;;
18364;SDS011;9309;52.126;11.616;2022-12-18T06:20:39;78.70;;;28.20;;
18364;SDS011;9309;52.126;11.616;2022-12-18T06:23:06;69.63;;;23.57;;
18364;SDS011;9309;52.126;11.616;2022-12-18T06:25:36;80.83;;;30.83;;
18364;SDS011;9309;52.126;11.616;2022-12-18T06:28:05;102.83;;;29.03;;
18364;SDS011;9309;52.126;11.616;2022-12-18T06:30:32;65.97;;;25.93;;
18364;SDS011;9309;52.126;11.616;2022-12-18T06:33:00;68.37;;;26.67;;
18364;SDS011;9309;52.126;11.616;2022-12-18T06:35:27;72.60;;;28.20;;
18364;SDS011;9309;52.126;11.616;2022-12-18T06:37:54;89.33;;;31.13;;
18364;SDS011;9309;52.126;11.616;2022-12-18T06:40:20;80.77;;;25.93;;
18364;SDS011;9309;52.126;11.616;2022-12-18T06:42:47;40.00;;;17.50;;
18364;SDS011;9309;52.126;11.616;2022-12-18T06:45:15;53.27;;;21.63;;
18364;SDS011;9309;52.126;11.616;2022-12-18T06:47:42;72.33;;;25.47;;
18364;SDS011;9309;52.126;11.616;2022-12-18T06:50:11;79.80;;;24.53;;
18364;SDS011;9309;52.126;11.616;2022-12-18T06:52:38;79.70;;;25.97;;
18364;SDS011;9309;52.126;11.616;2022-12-18T06:55:05;58.77;;;21.17;;
18364;SDS011;9309;52.126;11.616;2022-12-18T06:57:37;28.37;;;12.07;;
18364;SDS011;9309;52.126;11.616;2022-12-18T07:00:04;86.13;;;27.13;;
18364;SDS011;9309;52.126;11.616;2022-12-18T07:02:33;85.40;;;28.43;;
18364;SDS011;9309;52.126;11.616;2022-12-18T07:05:00;77.97;;;26.60;;
18364;SDS011;9309;52.126;11.616;2022-12-18T07:07:28;96.93;;;30.80;;
18364;SDS011;9309;52.126;11.616;2022-12-18T07:09:55;93.77;;;29.93;;
18364;SDS011;9309;52.126;11.616;2022-12-18T07:12:22;93.10;;;28.53;;
18364;SDS011;9309;52.126;11.616;2022-12-18T07:14:48;70.40;;;26.17;;
18364;SDS011;9309;52.126;11.616;2022-12-18T07:17:15;102.33;;;30.00;;
18364;SDS011;9309;52.126;11.616;2022-12-18T07:19:42;88.20;;;30.37;;
18364;SDS011;9309;52.126;11.616;2022-12-18T07:22:09;107.60;;;31.03;;
18364;SDS011;9309;52.126;11.616;2022-12-18T07:24:37;59.73;;;23.40;;
18364;SDS011;9309;52.126;11.616;2022-12-18T07:27:03;86.90;;;29.13;;
18364;SDS011;9309;52.126;11.616;2022-12-18T07:29:30;73.97;;;28.17;;
18364;SDS011;9309;52.126;11.616;2022-12-18T07:31:57;78.20;;;25.83;;
18364;SDS011;9309;52.126;11.616;2022-12-18T07:34:24;75.10;;;23.23;;
18364;SDS011;9309;52.126;11.616;2022-12-18T07:36:51;90.57;;;30.80;;
18364;SDS011;9309;52.126;11.616;2022-12-18T07:39:17;68.33;;;23.03;;
18364;SDS011;9309;52.126;11.616;2022-12-18T07:41:45;63.47;;;24.07;;
18364;SDS011;9309;52.126;11.616;2022-12-18T07:44:32;68.97;;;24.70;;
18364;SDS011;9309;52.126;11.616;2022-12-18T07:46:59;72.77;;;24.37;;
18364;SDS011;9309;52.126;11.616;2022-12-18T07:49:26;87.30;;;28.90;;
18364;SDS011;9309;52.126;11.616;2022-12-18T07:51:53;79.70;;;26.50;;
18364;SDS011;9309;52.126;11.616;2022-12-18T07:54:21;77.17;;;28.77;;
18364;SDS011;9309;52.126;11.616;2022-12-18T07:56:49;82.80;;;28.80;;
18364;SDS011;9309;52.126;11.616;2022-12-18T07:59:16;71.37;;;26.27;;
18364;SDS011;9309;52.126;11.616;2022-12-18T08:01:43;75.03;;;26.90;;
18364;SDS011;9309;52.126;11.616;2022-12-18T08:04:10;51.33;;;18.57;;
18364;SDS011;9309;52.126;11.616;2022-12-18T08:06:37;85.07;;;27.77;;
18364;SDS011;9309;52.126;11.616;2022-12-18T08:09:04;71.57;;;26.60;;
18364;SDS011;9309;52.126;11.616;2022-12-18T08:11:30;71.57;;;22.60;;
18364;SDS011;9309;52.126;11.616;2022-12-18T08:13:59;79.03;;;23.73;;
18364;SDS011;9309;52.126;11.616;2022-12-18T08:16:26;71.47;;;26.83;;
18364;SDS011;9309;52.126;11.616;2022-12-18T08:18:53;71.83;;;24.13;;
18364;SDS011;9309;52.126;11.616;2022-12-18T08:21:21;65.80;;;24.87;;
18364;SDS011;9309;52.126;11.616;2022-12-18T08:23:49;47.70;;;17.43;;
18364;SDS011;9309;52.126;11.616;2022-12-18T08:26:16;29.90;;;13.33;;
18364;SDS011;9309;52.126;11.616;2022-12-18T08:28:43;58.67;;;21.70;;
18364;SDS011;9309;52.126;11.616;2022-12-18T08:31:11;53.07;;;20.73;;
18364;SDS011;9309;52.126;11.616;2022-12-18T08:33:40;67.60;;;24.57;;
18364;SDS011;9309;52.126;11.616;2022-12-18T08:36:07;32.90;;;14.93;;
18364;SDS011;9309;52.126;11.616;2022-12-18T08:38:35;42.87;;;15.33;;
18364;SDS011;9309;52.126;11.616;2022-12-18T08:41:03;45.50;;;18.77;;
18364;SDS011;9309;52.126;11.616;2022-12-18T08:43:31;56.27;;;22.13;;
18364;SDS011;9309;52.126;11.616;2022-12-18T08:46:17;31.07;;;11.63;;
18364;SDS011;9309;52.126;11.616;2022-12-18T08:48:44;27.20;;;11.63;;
18364;SDS011;9309;52.126;11.616;2022-12-18T08:51:11;59.77;;;21.67;;
18364;SDS011;9309;52.126;11.616;2022-12-18T08:53:38;68.00;;;23.33;;
18364;SDS011;9309;52.126;11.616;2022-12-18T08:56:05;60.27;;;22.40;;
18364;SDS011;9309;52.126;11.616;2022-12-18T08:58:32;56.93;;;22.27;;
18364;SDS011;9309;52.126;11.616;2022-12-18T09:00:59;57.13;;;22.87;;
18364;SDS011;9309;52.126;11.616;2022-12-18T09:03:28;41.97;;;16.33;;
18364;SDS011;9309;52.126;11.616;2022-12-18T09:05:55;61.13;;;22.67;;
18364;SDS011;9309;52.126;11.616;2022-12-18T09:08:22;59.07;;;22.10;;
18364;SDS011;9309;52.126;11.616;2022-12-18T09:10:49;60.90;;;21.30;;
18364;SDS011;9309;52.126;11.616;2022-12-18T09:13:16;66.30;;;23.13;;
18364;SDS011;9309;52.126;11.616;2022-12-18T09:15:44;38.30;;;13.43;;
18364;SDS011;9309;52.126;11.616;2022-12-18T09:18:12;59.17;;;20.60;;
18364;SDS011;9309;52.126;11.616;2022-12-18T09:20:42;56.73;;;20.77;;
18364;SDS011;9309;52.126;11.616;2022-12-18T09:23:09;56.23;;;21.67;;
18364;SDS011;9309;52.126;11.616;2022-12-18T09:25:36;16.40;;;9.77;;
18364;SDS011;9309;52.126;11.616;2022-12-18T09:28:05;32.80;;;12.37;;
18364;SDS011;9309;52.126;11.616;2022-12-18T09:30:32;56.60;;;23.50;;
18364;SDS011;9309;52.126;11.616;2022-12-18T09:32:59;46.40;;;16.20;;
18364;SDS011;9309;52.126;11.616;2022-12-18T09:35:26;52.20;;;19.73;;
18364;SDS011;9309;52.126;11.616;2022-12-18T09:37:55;58.10;;;24.00;;
18364;SDS011;9309;52.126;11.616;2022-12-18T09:40:22;58.93;;;21.77;;
18364;SDS011;9309;52.126;11.616;2022-12-18T09:42:52;35.67;;;17.07;;
18364;SDS011;9309;52.126;11.616;2022-12-18T09:45:23;51.47;;;17.10;;
18364;SDS011;9309;52.126;11.616;2022-12-18T09:47:50;56.20;;;20.10;;
18364;SDS011;9309;52.126;11.616;2022-12-18T09:50:22;60.10;;;20.77;;
18364;SDS011;9309;52.126;11.616;2022-12-18T09:52:56;45.60;;;17.33;;
18364;SDS011;9309;52.126;11.616;2022-12-18T09:55:28;55.30;;;20.57;;
18364;SDS011;9309;52.126;11.616;2022-12-18T09:57:58;48.50;;;18.73;;
18364;SDS011;9309;52.126;11.616;2022-12-18T10:00:30;51.77;;;19.27;;
18364;SDS011;9309;52.126;11.616;2022-12-18T10:02:59;56.13;;;23.00;;
18364;SDS011;9309;52.126;11.616;2022-12-18T10:05:30;55.70;;;22.07;;
18364;SDS011;9309;52.126;11.616;2022-12-18T10:08:04;53.10;;;19.83;;
18364;SDS011;9309;52.126;11.616;2022-12-18T10:10:38;43.60;;;18.43;;
18364;SDS011;9309;52.126;11.616;2022-12-18T10:13:13;42.03;;;17.77;;
18364;SDS011;9309;52.126;11.616;2022-12-18T10:15:50;47.30;;;20.03;;
18364;SDS011;9309;52.126;11.616;2022-12-18T10:18:25;60.90;;;22.13;;
18364;SDS011;9309;52.126;11.616;2022-12-18T10:21:09;45.53;;;21.93;;
18364;SDS011;9309;52.126;11.616;2022-12-18T10:23:42;49.97;;;19.27;;
18364;SDS011;9309;52.126;11.616;2022-12-18T10:26:15;32.80;;;13.10;;
18364;SDS011;9309;52.126;11.616;2022-12-18T10:28:41;36.13;;;14.63;;
18364;SDS011;9309;52.126;11.616;2022-12-18T10:31:12;46.77;;;19.77;;
18364;SDS011;9309;52.126;11.616;2022-12-18T10:33:43;30.80;;;12.53;;
18364;SDS011;9309;52.126;11.616;2022-12-18T10:36:10;14.90;;;10.20;;
18364;SDS011;9309;52.126;11.616;2022-12-18T10:38:37;35.07;;;15.13;;
18364;SDS011;9309;52.126;11.616;2022-12-18T10:41:06;39.93;;;15.33;;
18364;SDS011;9309;52.126;11.616;2022-12-18T10:43:52;46.10;;;17.40;;
18364;SDS011;9309;52.126;11.616;2022-12-18T10:46:38;47.70;;;19.70;;
18364;SDS011;9309;52.126;11.616;2022-12-18T10:49:05;45.43;;;18.77;;
18364;SDS011;9309;52.126;11.616;2022-12-18T10:51:44;37.13;;;14.20;;
18364;SDS011;9309;52.126;11.616;2022-12-18T10:54:13;47.33;;;17.90;;
18364;SDS011;9309;52.126;11.616;2022-12-18T10:56:43;16.67;;;8.93;;
18364;SDS011;9309;52.126;11.616;2022-12-18T10:59:11;47.47;;;19.47;;
18364;SDS011;9309;52.126;11.616;2022-12-18T11:01:46;36.27;;;15.30;;
18364;SDS011;9309;52.126;11.616;2022-12-18T11:04:16;48.40;;;19.97;;
18364;SDS011;9309;52.126;11.616;2022-12-18T11:06:55;41.47;;;17.73;;
18364;SDS011;9309;52.126;11.616;2022-12-18T11:09:24;50.10;;;19.13;;
18364;SDS011;9309;52.126;11.616;2022-12-18T11:11:54;17.67;;;10.37;;
18364;SDS011;9309;52.126;11.616;2022-12-18T11:14:23;42.17;;;17.70;;
18364;SDS011;9309;52.126;11.616;2022-12-18T11:16:52;42.83;;;17.17;;
18364;SDS011;9309;52.126;11.616;2022-12-18T11:19:21;44.70;;;19.77;;
18364;SDS011;9309;52.126;11.616;2022-12-18T11:21:56;48.53;;;18.97;;
18364;SDS011;9309;52.126;11.616;2022-12-18T11:24:26;45.57;;;18.83;;
18364;SDS011;9309;52.126;11.616;2022-12-18T11:26:58;45.57;;;18.93;;
18364;SDS011;9309;52.126;11.616;2022-12-18T11:29:31;50.63;;;20.03;;
18364;SDS011;9309;52.126;11.616;2022-12-18T11:32:18;44.90;;;17.83;;
18364;SDS011;9309;52.126;11.616;2022-12-18T11:35:00;38.40;;;15.70;;
18364;SDS011;9309;52.126;11.616;2022-12-18T11:37:31;44.50;;;19.37;;
18364;SDS011;9309;52.126;11.616;2022-12-18T11:39:59;41.33;;;16.17;;
18364;SDS011;9309;52.126;11.616;2022-12-18T11:42:34;32.57;;;14.67;;
18364;SDS011;9309;52.126;11.616;2022-12-18T11:45:08;41.27;;;17.60;;
18364;SDS011;9309;52.126;11.616;2022-12-18T11:47:54;44.33;;;17.97;;
18364;SDS011;9309;52.126;11.616;2022-12-18T11:50:27;47.13;;;18.47;;
18364;SDS011;9309;52.126;11.616;2022-12-18T11:52:58;40.50;;;18.20;;
18364;SDS011;9309;52.126;11.616;2022-12-18T11:55:28;14.17;;;9.80;;
18364;SDS011;9309;52.126;11.616;2022-12-18T11:58:04;46.70;;;20.57;;
18364;SDS011;9309;52.126;11.616;2022-12-18T12:00:37;43.73;;;18.13;;
18364;SDS011;9309;52.126;11.616;2022-12-18T12:03:20;49.77;;;22.27;;
18364;SDS011;9309;52.126;11.616;2022-12-18T12:05:58;63.13;;;24.27;;
18364;SDS011;9309;52.126;11.616;2022-12-18T12:08:40;58.97;;;25.10;;
18364;SDS011;9309;52.126;11.616;2022-12-18T12:11:20;54.43;;;22.27;;
18364;SDS011;9309;52.126;11.616;2022-12-18T12:13:58;39.43;;;17.70;;
18364;SDS011;9309;52.126;11.616;2022-12-18T12:16:37;41.93;;;16.27;;
18364;SDS011;9309;52.126;11.616;2022-12-18T12:19:16;47.43;;;18.93;;
18364;SDS011;9309;52.126;11.616;2022-12-18T12:21:51;48.33;;;18.50;;
18364;SDS011;9309;52.126;11.616;2022-12-18T12:24:27;43.57;;;19.37;;
18364;SDS011;9309;52.126;11.616;2022-12-18T12:27:05;51.37;;;20.40;;
18364;SDS011;9309;52.126;11.616;2022-12-18T12:29:42;47.40;;;18.73;;
18364;SDS011;9309;52.126;11.616;2022-12-18T12:32:22;52.87;;;19.77;;
18364;SDS011;9309;52.126;11.616;2022-12-18T12:35:01;38.87;;;17.93;;
18364;SDS011;9309;52.126;11.616;2022-12-18T12:37:40;33.93;;;14.90;;
18364;SDS011;9309;52.126;11.616;2022-12-18T12:40:18;32.60;;;15.67;;
18364;SDS011;9309;52.126;11.616;2022-12-18T12:42:47;29.37;;;14.60;;
18364;SDS011;9309;52.126;11.616;2022-12-18T12:45:40;33.97;;;15.80;;
18364;SDS011;9309;52.126;11.616;2022-12-18T12:48:14;41.23;;;15.80;;
18364;SDS011;9309;52.126;11.616;2022-12-18T12:50:44;35.10;;;15.83;;
18364;SDS011;9309;52.126;11.616;2022-12-18T12:53:15;43.87;;;18.93;;
18364;SDS011;9309;52.126;11.616;2022-12-18T12:55:49;45.00;;;18.33;;
18364;SDS011;9309;52.126;11.616;2022-12-18T12:58:18;32.53;;;13.73;;
18364;SDS011;9309;52.126;11.616;2022-12-18T13:00:55;35.07;;;15.50;;
18364;SDS011;9309;52.126;11.616;2022-12-18T13:03:33;20.83;;;10.10;;
18364;SDS011;9309;52.126;11.616;2022-12-18T13:06:10;33.50;;;14.70;;
18364;SDS011;9309;52.126;11.616;2022-12-18T13:08:54;41.40;;;17.83;;
18364;SDS011;9309;52.126;11.616;2022-12-18T13:11:30;50.03;;;19.77;;
18364;SDS011;9309;52.126;11.616;2022-12-18T13:14:26;19.97;;;9.67;;
18364;SDS011;9309;52.126;11.616;2022-12-18T13:22:41;34.13;;;15.87;;
18364;SDS011;9309;52.126;11.616;2022-12-18T13:27:59;44.77;;;19.43;;
18364;SDS011;9309;52.126;11.616;2022-12-18T13:30:45;36.20;;;15.07;;
18364;SDS011;9309;52.126;11.616;2022-12-18T13:36:23;42.87;;;18.17;;
18364;SDS011;9309;52.126;11.616;2022-12-18T13:39:09;45.70;;;17.77;;
18364;SDS011;9309;52.126;11.616;2022-12-18T13:41:50;37.27;;;16.63;;
18364;SDS011;9309;52.126;11.616;2022-12-18T13:44:31;44.80;;;16.43;;
18364;SDS011;9309;52.126;11.616;2022-12-18T13:46:59;35.40;;;17.23;;
18364;SDS011;9309;52.126;11.616;2022-12-18T13:49:29;42.80;;;17.87;;
18364;SDS011;9309;52.126;11.616;2022-12-18T13:52:10;37.97;;;16.57;;
18364;SDS011;9309;52.126;11.616;2022-12-18T13:54:45;42.97;;;15.27;;
18364;SDS011;9309;52.126;11.616;2022-12-18T13:57:26;42.70;;;17.23;;
18364;SDS011;9309;52.126;11.616;2022-12-18T13:59:55;39.13;;;16.40;;
18364;SDS011;9309;52.126;11.616;2022-12-18T14:02:23;29.23;;;13.13;;
18364;SDS011;9309;52.126;11.616;2022-12-18T14:04:52;36.93;;;15.87;;
18364;SDS011;9309;52.126;11.616;2022-12-18T14:07:20;37.50;;;15.90;;
18364;SDS011;9309;52.126;11.616;2022-12-18T14:09:50;41.87;;;16.63;;
18364;SDS011;9309;52.126;11.616;2022-12-18T14:12:19;43.07;;;17.60;;
18364;SDS011;9309;52.126;11.616;2022-12-18T14:15:10;41.47;;;17.00;;
18364;SDS011;9309;52.126;11.616;2022-12-18T14:17:46;45.67;;;17.30;;
18364;SDS011;9309;52.126;11.616;2022-12-18T14:20:13;41.83;;;16.93;;
18364;SDS011;9309;52.126;11.616;2022-12-18T14:22:43;43.37;;;18.47;;
18364;SDS011;9309;52.126;11.616;2022-12-18T14:25:14;22.83;;;11.37;;
18364;SDS011;9309;52.126;11.616;2022-12-18T14:27:44;17.77;;;8.17;;
18364;SDS011;9309;52.126;11.616;2022-12-18T14:30:29;53.47;;;18.13;;
18364;SDS011;9309;52.126;11.616;2022-12-18T14:33:00;50.90;;;19.00;;
18364;SDS011;9309;52.126;11.616;2022-12-18T14:35:28;46.27;;;17.60;;
18364;SDS011;9309;52.126;11.616;2022-12-18T14:38:09;54.37;;;19.77;;
18364;SDS011;9309;52.126;11.616;2022-12-18T14:40:51;60.23;;;20.33;;
18364;SDS011;9309;52.126;11.616;2022-12-18T14:43:20;45.53;;;19.20;;
18364;SDS011;9309;52.126;11.616;2022-12-18T14:45:47;58.30;;;20.03;;
18364;SDS011;9309;52.126;11.616;2022-12-18T14:48:16;50.93;;;17.23;;
18364;SDS011;9309;52.126;11.616;2022-12-18T14:50:44;53.70;;;18.27;;
18364;SDS011;9309;52.126;11.616;2022-12-18T14:53:21;55.67;;;19.53;;
18364;SDS011;9309;52.126;11.616;2022-12-18T14:55:54;33.33;;;12.13;;